createdAt,value
2018-11-07T00:00:06.836Z,38.30
2018-11-07T00:02:35.769Z,38.53
2018-11-07T00:05:05.692Z,39.38
2018-11-07T00:07:34.817Z,37.65
2018-11-07T00:10:04.108Z,37.33
2018-11-07T00:12:33.079Z,36.95
2018-11-07T00:15:02.031Z,34.98
2018-11-07T00:17:31.047Z,37.67
2018-11-07T00:20:00.557Z,37.78
2018-11-07T00:22:29.486Z,37.17
2018-11-07T00:24:58.423Z,37.88
2018-11-07T00:27:27.413Z,35.78
2018-11-07T00:29:56.435Z,38.28
2018-11-07T00:32:25.579Z,39.78
2018-11-07T00:34:54.556Z,37.48
2018-11-07T00:37:23.745Z,40.28
2018-11-07T00:39:52.725Z,35.68
2018-11-07T00:42:21.716Z,38.10
2018-11-07T00:44:51.171Z,38.83
2018-11-07T00:47:20.113Z,40.92
2018-11-07T00:49:49.198Z,40.23
2018-11-07T00:52:18.383Z,39.55
2018-11-07T00:54:47.479Z,41.63
2018-11-07T00:57:16.418Z,40.17
2018-11-07T00:59:45.369Z,39.53
2018-11-07T01:02:14.327Z,37.20
2018-11-07T01:04:43.263Z,37.48
2018-11-07T01:07:12.268Z,35.35
2018-11-07T01:09:41.358Z,36.38
2018-11-07T01:12:10.523Z,35.23
2018-11-07T01:14:39.514Z,39.23
2018-11-07T01:17:08.532Z,38.00
2018-11-07T01:19:37.505Z,38.30
2018-11-07T01:22:07.247Z,35.95
2018-11-07T01:24:36.182Z,36.40
2018-11-07T01:27:05.180Z,38.38
2018-11-07T01:29:34.149Z,36.38
2018-11-07T01:32:03.100Z,36.55
2018-11-07T01:34:32.065Z,37.63
2018-11-07T01:37:01.063Z,36.90
2018-11-07T01:39:30.154Z,35.90
2018-11-07T01:41:59.115Z,34.70
2018-11-07T01:44:28.367Z,35.33
2018-11-07T01:46:57.290Z,34.60
2018-11-07T01:49:26.229Z,35.40
2018-11-07T01:51:55.222Z,35.28
2018-11-07T01:54:24.213Z,35.05
2018-11-07T01:56:53.134Z,33.67
2018-11-07T01:59:22.062Z,36.80
2018-11-07T02:01:51.016Z,34.65
2018-11-07T02:04:20.286Z,35.68
2018-11-07T02:06:49.226Z,35.05
2018-11-07T02:09:18.139Z,36.53
2018-11-07T02:11:46.994Z,34.98
2018-11-07T02:14:16.004Z,35.90
2018-11-07T02:16:45.256Z,35.58
2018-11-07T02:19:14.309Z,37.28
2018-11-07T02:21:43.492Z,36.83
2018-11-07T02:24:12.405Z,34.33
2018-11-07T02:26:41.693Z,34.85
2018-11-07T02:29:14.486Z,35.83
2018-11-07T02:31:46.169Z,34.27
2018-11-07T02:34:16.233Z,33.95
2018-11-07T02:36:45.376Z,33.63
2018-11-07T02:39:15.567Z,32.28
2018-11-07T02:41:44.582Z,35.15
2018-11-07T02:44:14.158Z,34.05
2018-11-07T02:46:43.547Z,34.80
2018-11-07T02:49:12.495Z,33.83
2018-11-07T02:51:41.447Z,32.30
2018-11-07T02:54:10.356Z,32.75
2018-11-07T02:56:39.276Z,30.70
2018-11-07T02:59:08.203Z,29.30
2018-11-07T03:01:37.291Z,30.08
2018-11-07T03:04:06.381Z,28.75
2018-11-07T03:06:35.317Z,30.60
2018-11-07T03:09:06.533Z,32.10
2018-11-07T03:11:35.826Z,31.85
2018-11-07T03:14:05.205Z,32.17
2018-11-07T03:16:34.207Z,30.75
2018-11-07T03:19:03.126Z,33.67
2018-11-07T03:21:32.189Z,32.95
2018-11-07T03:24:01.121Z,33.05
2018-11-07T03:26:30.089Z,31.25
2018-11-07T03:28:59.032Z,32.58
2018-11-07T03:31:28.265Z,31.45
2018-11-07T03:33:57.385Z,32.25
2018-11-07T03:36:26.340Z,33.80
2018-11-07T03:38:55.284Z,31.33
2018-11-07T03:41:24.262Z,31.73
2018-11-07T03:43:53.229Z,32.48
2018-11-07T03:46:22.576Z,34.08
2018-11-07T03:48:51.500Z,33.75
2018-11-07T03:51:20.453Z,34.30
2018-11-07T03:53:49.554Z,32.85
2018-11-07T03:56:18.484Z,32.35
2018-11-07T03:58:47.600Z,31.82
2018-11-07T04:01:17.175Z,31.55
2018-11-07T04:03:46.186Z,31.17
2018-11-07T04:06:15.186Z,38.50
2018-11-07T04:08:44.128Z,39.10
2018-11-07T04:11:13.058Z,32.58
2018-11-07T04:13:42.089Z,32.48
2018-11-07T04:16:11.235Z,34.73
2018-11-07T04:18:40.372Z,33.38
2018-11-07T04:21:09.320Z,33.42
2018-11-07T04:23:38.331Z,32.93
2018-11-07T04:26:07.443Z,32.58
2018-11-07T04:28:36.437Z,33.48
2018-11-07T04:31:05.872Z,34.03
2018-11-07T04:33:34.803Z,34.53
2018-11-07T04:36:04.095Z,35.55
2018-11-07T04:38:33.109Z,34.35
2018-11-07T04:41:02.199Z,33.58
2018-11-07T04:43:31.211Z,30.85
2018-11-07T04:46:00.160Z,34.45
2018-11-07T04:48:29.128Z,35.55
2018-11-07T04:50:58.035Z,35.50
2018-11-07T04:53:26.977Z,33.83
2018-11-07T04:55:56.061Z,34.80
2018-11-07T04:58:25.019Z,35.88
2018-11-07T05:00:53.940Z,36.28
2018-11-07T05:03:22.881Z,36.65
2018-11-07T05:05:52.182Z,34.35
2018-11-07T05:08:21.276Z,36.40
2018-11-07T05:10:50.417Z,35.63
2018-11-07T05:13:19.367Z,35.15
2018-11-07T05:15:48.325Z,37.30
2018-11-07T05:18:17.453Z,36.20
2018-11-07T05:20:46.385Z,37.28
2018-11-07T05:23:15.469Z,37.25
2018-11-07T05:25:44.423Z,35.35
2018-11-07T05:28:13.367Z,34.60
2018-11-07T05:30:42.353Z,36.53
2018-11-07T05:33:11.304Z,36.45
2018-11-07T05:35:40.260Z,36.70
2018-11-07T05:38:09.503Z,38.28
2018-11-07T05:40:38.519Z,38.95
2018-11-07T05:43:07.607Z,39.05
2018-11-07T05:45:36.568Z,37.40
2018-11-07T05:48:05.620Z,51.88
2018-11-07T05:50:34.585Z,41.28
2018-11-07T05:53:03.572Z,37.83
2018-11-07T05:55:32.535Z,39.83
2018-11-07T05:58:01.608Z,39.45
2018-11-07T06:00:30.580Z,37.90
2018-11-07T06:02:59.584Z,38.83
2018-11-07T06:05:28.634Z,41.00
2018-11-07T06:07:57.627Z,38.92
2018-11-07T06:10:26.667Z,39.48
2018-11-07T06:12:55.618Z,41.18
2018-11-07T06:15:24.665Z,38.60
2018-11-07T06:17:53.742Z,38.58
2018-11-07T06:20:22.674Z,36.75
2018-11-07T06:22:51.808Z,37.48
2018-11-07T06:25:20.854Z,38.23
2018-11-07T06:27:49.920Z,39.50
2018-11-07T06:30:18.988Z,39.75
2018-11-07T06:32:47.927Z,39.15
2018-11-07T06:35:16.956Z,37.67
2018-11-07T06:37:45.948Z,42.30
2018-11-07T06:40:14.978Z,43.20
2018-11-07T06:42:45.779Z,41.10
2018-11-07T06:45:14.729Z,39.78
2018-11-07T06:47:43.695Z,39.40
2018-11-07T06:50:14.437Z,37.17
2018-11-07T06:52:43.897Z,39.13
2018-11-07T06:55:13.078Z,37.03
2018-11-07T06:57:42.553Z,38.33
2018-11-07T07:00:14.173Z,35.83
2018-11-07T07:02:44.370Z,38.53
2018-11-07T07:05:13.791Z,39.05
2018-11-07T07:07:42.807Z,37.75
2018-11-07T07:10:14.217Z,37.38
2018-11-07T07:12:43.267Z,36.98
2018-11-07T07:15:14.075Z,38.65
2018-11-07T07:17:43.157Z,34.70
2018-11-07T07:20:15.349Z,36.42
2018-11-07T07:22:45.407Z,37.58
2018-11-07T07:25:14.583Z,36.70
2018-11-07T07:27:44.234Z,42.23
2018-11-07T07:30:15.205Z,35.00
2018-11-07T07:32:45.090Z,37.33
2018-11-07T07:35:14.985Z,36.68
2018-11-07T07:37:44.159Z,34.67
2018-11-07T07:40:14.334Z,36.25
2018-11-07T07:42:44.080Z,36.10
2018-11-07T07:45:15.039Z,34.00
2018-11-07T07:47:44.710Z,33.78
2018-11-07T07:50:14.912Z,35.43
2018-11-07T07:52:44.312Z,35.73
2018-11-07T07:55:13.818Z,33.65
2018-11-07T07:57:43.314Z,31.50
2018-11-07T08:00:14.385Z,36.15
2018-11-07T08:02:45.184Z,33.02
2018-11-07T08:05:14.372Z,34.78
2018-11-07T08:07:44.161Z,34.10
2018-11-07T08:10:14.459Z,30.90
2018-11-07T08:12:44.046Z,32.03
2018-11-07T08:15:13.937Z,31.10
2018-11-07T08:17:43.696Z,32.93
2018-11-07T08:20:14.145Z,32.40
2018-11-07T08:22:44.407Z,32.65
2018-11-07T08:25:13.383Z,30.77
2018-11-07T08:27:42.341Z,31.33
2018-11-07T08:30:14.275Z,29.70
2018-11-07T08:32:43.608Z,29.00
2018-11-07T08:35:13.591Z,31.05
2018-11-07T08:37:43.594Z,28.73
2018-11-07T08:40:17.719Z,29.98
2018-11-07T08:42:47.709Z,30.02
2018-11-07T08:45:16.837Z,28.57
2018-11-07T08:47:46.653Z,29.72
2018-11-07T08:50:17.067Z,29.57
2018-11-07T08:52:47.394Z,28.15
2018-11-07T08:55:17.814Z,31.60
2018-11-07T08:57:47.265Z,30.50
2018-11-07T09:00:17.905Z,29.27
2018-11-07T09:02:47.509Z,28.05
2018-11-07T09:05:17.560Z,28.77
2018-11-07T09:07:47.081Z,29.40
2018-11-07T09:10:17.342Z,28.38
2018-11-07T09:12:46.624Z,27.27
2018-11-07T09:15:17.350Z,27.65
2018-11-07T09:17:46.315Z,28.25
2018-11-07T09:20:17.270Z,26.70
2018-11-07T09:22:46.369Z,27.70
2018-11-07T09:25:16.176Z,27.45
2018-11-07T09:27:46.065Z,26.68
2018-11-07T09:30:16.472Z,26.17
2018-11-07T09:32:45.456Z,26.68
2018-11-07T09:35:15.128Z,27.25
2018-11-07T09:37:44.362Z,26.50
2018-11-07T09:40:17.103Z,27.10
2018-11-07T09:42:46.909Z,25.90
2018-11-07T09:45:17.106Z,26.27
2018-11-07T09:47:47.166Z,25.75
2018-11-07T09:50:17.454Z,24.80
2018-11-07T09:52:46.610Z,25.55
2018-11-07T09:55:18.214Z,24.18
2018-11-07T09:57:47.392Z,25.20
2018-11-07T10:00:19.270Z,25.55
2018-11-07T10:02:48.479Z,26.27
2018-11-07T10:05:18.709Z,26.27
2018-11-07T10:07:47.909Z,25.15
2018-11-07T10:10:18.315Z,25.23
2018-11-07T10:12:47.722Z,25.00
2018-11-07T10:15:17.540Z,25.50
2018-11-07T10:17:46.502Z,25.48
2018-11-07T10:20:17.162Z,23.87
2018-11-07T10:22:46.978Z,24.45
2018-11-07T10:25:16.266Z,26.07
2018-11-07T10:27:45.529Z,24.37
2018-11-07T10:30:16.056Z,23.95
2018-11-07T10:32:46.332Z,23.75
2018-11-07T10:35:15.379Z,23.60
2018-11-07T10:37:44.818Z,23.27
2018-11-07T10:40:20.763Z,22.20
2018-11-07T10:42:49.780Z,23.62
2018-11-07T10:45:18.786Z,23.50
2018-11-07T10:47:48.625Z,24.55
2018-11-07T10:50:18.911Z,23.32
2018-11-07T10:52:48.595Z,23.18
2018-11-07T10:55:18.011Z,21.42
2018-11-07T10:57:47.137Z,22.22
2018-11-07T11:00:21.693Z,20.92
2018-11-07T11:02:56.860Z,22.13
2018-11-07T11:05:26.280Z,21.42
2018-11-07T11:07:55.246Z,19.98
2018-11-07T11:10:24.721Z,20.95
2018-11-07T11:12:53.723Z,19.05
2018-11-07T11:15:22.828Z,18.82
2018-11-07T11:17:51.913Z,19.40
2018-11-07T11:20:20.866Z,19.48
2018-11-07T11:22:49.831Z,18.87
2018-11-07T11:25:18.905Z,21.80
2018-11-07T11:27:48.025Z,19.00
2018-11-07T11:30:16.991Z,18.40
2018-11-07T11:32:46.178Z,18.48
2018-11-07T11:35:15.373Z,17.65
2018-11-07T11:37:44.355Z,17.17
2018-11-07T11:40:14.964Z,17.65
2018-11-07T11:42:44.721Z,17.32
2018-11-07T11:45:15.263Z,18.00
2018-11-07T11:47:44.956Z,18.40
2018-11-07T11:50:16.266Z,17.02
2018-11-07T11:52:46.118Z,17.42
2018-11-07T11:55:15.114Z,17.70
2018-11-07T11:57:44.735Z,18.30
2018-11-07T12:00:15.840Z,17.80
2018-11-07T12:02:45.492Z,17.67
2018-11-07T12:05:15.370Z,17.42
2018-11-07T12:07:44.536Z,17.00
2018-11-07T12:10:18.999Z,17.40
2018-11-07T12:12:49.646Z,15.88
2018-11-07T12:15:19.841Z,15.45
2018-11-07T12:17:49.320Z,17.10
2018-11-07T12:20:18.450Z,16.05
2018-11-07T12:22:47.580Z,16.67
2018-11-07T12:25:17.290Z,15.55
2018-11-07T12:27:46.585Z,15.90
2018-11-07T12:30:17.742Z,17.05
2018-11-07T12:32:47.632Z,16.12
2018-11-07T12:35:17.170Z,16.27
2018-11-07T12:37:46.690Z,16.12
2018-11-07T12:40:16.084Z,16.27
2018-11-07T12:42:45.105Z,16.42
2018-11-07T12:45:15.487Z,15.72
2018-11-07T12:47:44.419Z,16.20
2018-11-07T12:50:17.751Z,15.83
2018-11-07T12:52:47.296Z,16.15
2018-11-07T12:55:16.854Z,16.93
2018-11-07T12:57:45.801Z,33.42
2018-11-07T13:00:17.883Z,16.27
2018-11-07T13:02:47.193Z,14.90
2018-11-07T13:05:17.449Z,13.95
2018-11-07T13:07:47.491Z,16.40
2018-11-07T13:10:17.700Z,17.35
2018-11-07T13:12:47.341Z,14.50
2018-11-07T13:15:17.041Z,14.28
2018-11-07T13:17:47.407Z,14.05
2018-11-07T13:20:18.513Z,13.70
2018-11-07T13:22:49.016Z,13.10
2018-11-07T13:25:18.279Z,13.58
2018-11-07T13:27:47.339Z,12.55
2018-11-07T13:30:17.624Z,13.00
2018-11-07T13:32:46.604Z,12.53
2018-11-07T13:35:16.480Z,12.93
2018-11-07T13:37:46.692Z,13.00
2018-11-07T13:40:18.349Z,13.78
2018-11-07T13:42:47.420Z,14.03
2018-11-07T13:45:18.559Z,15.78
2018-11-07T13:47:48.904Z,13.95
2018-11-07T13:50:18.366Z,13.95
2018-11-07T13:52:47.539Z,15.20
2018-11-07T13:55:16.643Z,14.93
2018-11-07T13:57:45.900Z,16.35
2018-11-07T14:00:19.918Z,17.87
2018-11-07T14:02:49.296Z,17.67
2018-11-07T14:05:18.280Z,17.37
2018-11-07T14:07:47.547Z,17.00
2018-11-07T14:10:20.474Z,17.23
2018-11-07T14:12:50.450Z,17.77
2018-11-07T14:15:19.444Z,18.30
2018-11-07T14:17:48.743Z,17.75
2018-11-07T14:20:17.988Z,18.75
2018-11-07T14:22:47.124Z,19.80
2018-11-07T14:25:16.158Z,17.57
2018-11-07T14:27:45.365Z,18.07
2018-11-07T14:30:16.019Z,18.80
2018-11-07T14:32:51.367Z,17.73
2018-11-07T14:35:20.915Z,18.20
2018-11-07T14:37:50.333Z,19.02
2018-11-07T14:40:19.446Z,20.50
2018-11-07T14:42:48.445Z,18.90
2018-11-07T14:45:17.905Z,24.37
2018-11-07T14:47:46.966Z,18.20
2018-11-07T14:50:16.227Z,20.68
2018-11-07T14:52:45.533Z,19.52
2018-11-07T14:55:14.533Z,17.90
2018-11-07T14:57:43.629Z,19.50
2018-11-07T15:00:14.485Z,17.52
2018-11-07T15:02:44.135Z,21.10
2018-11-07T15:05:14.797Z,19.57
2018-11-07T15:07:44.509Z,19.00
2018-11-07T15:10:14.704Z,18.02
2018-11-07T15:12:43.738Z,17.82
2018-11-07T15:15:17.578Z,16.80
2018-11-07T15:17:47.348Z,19.70
2018-11-07T15:20:17.490Z,19.62
2018-11-07T15:22:46.492Z,21.07
2018-11-07T15:25:16.633Z,20.32
2018-11-07T15:27:46.543Z,19.35
2018-11-07T15:30:16.836Z,19.17
2018-11-07T15:32:46.717Z,20.68
2018-11-07T15:35:15.831Z,22.50
2018-11-07T15:37:44.937Z,22.10
2018-11-07T15:40:15.352Z,22.13
2018-11-07T15:42:44.958Z,21.97
2018-11-07T15:45:15.414Z,21.57
2018-11-07T15:47:44.478Z,22.35
2018-11-07T15:50:18.912Z,21.73
2018-11-07T15:52:48.519Z,23.77
2018-11-07T15:55:17.766Z,21.82
2018-11-07T15:57:46.718Z,20.08
2018-11-07T16:00:16.930Z,21.57
2018-11-07T16:02:45.966Z,21.50
2018-11-07T16:05:15.934Z,21.15
2018-11-07T16:07:44.905Z,22.07
2018-11-07T16:10:15.056Z,24.60
2018-11-07T16:12:44.463Z,23.00
2018-11-07T16:15:15.318Z,23.18
2018-11-07T16:17:45.074Z,24.30
2018-11-07T16:20:15.545Z,24.37
2018-11-07T16:22:45.388Z,23.27
2018-11-07T16:25:14.502Z,22.90
2018-11-07T16:27:44.017Z,20.70
2018-11-07T16:30:14.571Z,21.93
2018-11-07T16:32:43.909Z,23.77
2018-11-07T16:35:13.594Z,24.57
2018-11-07T16:37:43.109Z,23.73
2018-11-07T16:40:15.677Z,30.95
2018-11-07T16:42:44.991Z,25.05
2018-11-07T16:45:15.279Z,25.32
2018-11-07T16:47:44.354Z,23.35
2018-11-07T16:50:15.106Z,23.55
2018-11-07T16:52:44.215Z,24.20
2018-11-07T16:55:13.918Z,23.73
2018-11-07T16:57:42.898Z,23.70
2018-11-07T17:00:18.161Z,23.95
2018-11-07T17:02:47.984Z,23.47
2018-11-07T17:05:17.465Z,24.98
2018-11-07T17:07:47.803Z,25.72
2018-11-07T17:10:17.198Z,24.92
2018-11-07T17:12:46.179Z,27.30
2018-11-07T17:15:15.243Z,25.60
2018-11-07T17:17:44.207Z,24.63
2018-11-07T17:20:14.321Z,25.48
2018-11-07T17:22:43.704Z,27.10
2018-11-07T17:25:15.167Z,25.27
2018-11-07T17:27:44.359Z,24.52
2018-11-07T17:30:14.430Z,25.05
2018-11-07T17:32:43.567Z,26.85
2018-11-07T17:35:13.847Z,25.50
2018-11-07T17:37:43.390Z,26.12
2018-11-07T17:40:15.270Z,28.70
2018-11-07T17:42:44.573Z,27.82
2018-11-07T17:45:15.697Z,25.55
2018-11-07T17:47:45.195Z,25.50
2018-11-07T17:50:15.621Z,26.65
2018-11-07T17:52:44.726Z,27.82
2018-11-07T17:55:15.183Z,26.25
2018-11-07T17:57:44.148Z,25.62
2018-11-07T18:00:18.767Z,25.65
2018-11-07T18:02:48.097Z,24.15
2018-11-07T18:05:17.274Z,24.60
2018-11-07T18:07:46.392Z,24.98
2018-11-07T18:10:16.956Z,25.37
2018-11-07T18:12:46.291Z,25.00
2018-11-07T18:15:15.382Z,25.35
2018-11-07T18:17:44.407Z,24.50
2018-11-07T18:20:14.921Z,26.12
2018-11-07T18:22:43.997Z,25.75
2018-11-07T18:25:13.936Z,26.80
2018-11-07T18:27:43.362Z,26.35
2018-11-07T18:30:13.742Z,25.12
2018-11-07T18:32:43.268Z,24.63
2018-11-07T18:35:13.926Z,27.15
2018-11-07T18:37:43.196Z,26.52
2018-11-07T18:40:13.532Z,26.90
2018-11-07T18:42:42.545Z,26.97
2018-11-07T18:45:12.344Z,26.85
2018-11-07T18:47:42.878Z,26.93
2018-11-07T18:50:14.733Z,28.27
2018-11-07T18:52:44.119Z,26.80
2018-11-07T18:55:14.222Z,26.52
2018-11-07T18:57:44.144Z,26.15
2018-11-07T19:00:15.847Z,26.07
2018-11-07T19:02:45.806Z,26.23
2018-11-07T19:05:15.307Z,25.52
2018-11-07T19:07:44.384Z,26.48
2018-11-07T19:10:18.716Z,26.97
2018-11-07T19:12:48.170Z,26.05
2018-11-07T19:15:17.652Z,28.80
2018-11-07T19:17:47.656Z,25.85
2018-11-07T19:20:17.235Z,26.57
2018-11-07T19:22:46.556Z,28.20
2018-11-07T19:25:17.024Z,28.10
2018-11-07T19:27:46.119Z,27.62
2018-11-07T19:30:16.747Z,28.15
2018-11-07T19:32:46.812Z,30.32
2018-11-07T19:35:17.263Z,27.95
2018-11-07T19:37:47.095Z,28.57
2018-11-07T19:40:18.767Z,29.15
2018-11-07T19:42:48.065Z,29.07
2018-11-07T19:45:18.370Z,29.92
2018-11-07T19:47:47.590Z,28.77
2018-11-07T19:50:17.727Z,28.67
2018-11-07T19:52:47.793Z,27.13
2018-11-07T19:55:20.646Z,27.25
2018-11-07T19:57:57.551Z,30.23
2018-11-07T20:00:27.000Z,28.47
2018-11-07T20:02:55.969Z,29.40
2018-11-07T20:05:25.316Z,28.10
2018-11-07T20:07:54.273Z,29.25
2018-11-07T20:10:23.404Z,29.25
2018-11-07T20:12:52.629Z,30.27
2018-11-07T20:15:21.947Z,30.05
2018-11-07T20:17:51.303Z,30.05
2018-11-07T20:20:20.296Z,29.12
2018-11-07T20:22:49.293Z,29.45
2018-11-07T20:25:18.480Z,29.80
2018-11-07T20:27:47.624Z,28.27
2018-11-07T20:30:18.141Z,27.42
2018-11-07T20:32:47.118Z,28.42
2018-11-07T20:35:17.361Z,28.67
2018-11-07T20:37:46.509Z,30.17
2018-11-07T20:40:16.910Z,28.17
2018-11-07T20:42:45.950Z,28.77
2018-11-07T20:45:15.601Z,27.90
2018-11-07T20:47:45.070Z,27.80
2018-11-07T20:50:16.244Z,28.27
2018-11-07T20:52:45.782Z,27.82
2018-11-07T20:55:15.258Z,28.12
2018-11-07T20:57:44.234Z,27.90
2018-11-07T21:00:18.364Z,28.10
2018-11-07T21:02:47.763Z,26.55
2018-11-07T21:05:17.108Z,27.07
2018-11-07T21:07:46.040Z,27.17
2018-11-07T21:10:18.262Z,25.90
2018-11-07T21:12:47.600Z,27.73
2018-11-07T21:15:17.519Z,28.10
2018-11-07T21:17:46.946Z,26.87
2018-11-07T21:20:15.935Z,26.87
2018-11-07T21:22:45.113Z,27.62
2018-11-07T21:25:14.274Z,28.17
2018-11-07T21:27:43.343Z,25.50
2018-11-07T21:30:14.071Z,25.55
2018-11-07T21:32:43.668Z,27.13
2018-11-07T21:35:12.870Z,25.77
2018-11-07T21:37:42.032Z,26.77
2018-11-07T21:40:13.101Z,28.57
2018-11-07T21:42:42.357Z,28.30
2018-11-07T21:45:12.625Z,27.80
2018-11-07T21:47:41.952Z,28.07
2018-11-07T21:50:12.550Z,30.82
2018-11-07T21:52:41.634Z,29.75
2018-11-07T21:55:10.640Z,28.02
2018-11-07T21:57:39.917Z,28.62
2018-11-07T22:00:11.213Z,28.05
2018-11-07T22:02:40.413Z,28.98
2018-11-07T22:05:10.485Z,27.20
2018-11-07T22:07:39.791Z,30.62
2018-11-07T22:10:09.659Z,28.40
2018-11-07T22:12:38.635Z,28.25
2018-11-07T22:15:08.557Z,28.80
2018-11-07T22:17:37.698Z,29.63
2018-11-07T22:20:13.265Z,28.27
2018-11-07T22:22:42.446Z,27.82
2018-11-07T22:25:11.541Z,28.30
2018-11-07T22:27:40.542Z,29.18
2018-11-07T22:30:11.236Z,28.67
2018-11-07T22:32:40.475Z,27.95
2018-11-07T22:35:11.410Z,28.98
2018-11-07T22:37:40.620Z,29.25
2018-11-07T22:40:11.636Z,28.75
2018-11-07T22:42:40.640Z,29.07
2018-11-07T22:45:11.170Z,28.75
2018-11-07T22:47:40.320Z,29.72
2018-11-07T22:50:11.210Z,27.95
2018-11-07T22:52:41.346Z,28.52
2018-11-07T22:55:10.278Z,30.35
2018-11-07T22:57:39.827Z,27.98
2018-11-07T23:00:15.027Z,27.50
2018-11-07T23:02:43.953Z,29.45
2018-11-07T23:05:12.898Z,28.87
2018-11-07T23:07:41.835Z,29.98
2018-11-07T23:10:10.982Z,29.48
2018-11-07T23:12:39.938Z,29.92
2018-11-07T23:15:08.951Z,28.35
2018-11-07T23:17:38.020Z,29.65
2018-11-07T23:20:08.693Z,30.30
2018-11-07T23:22:37.624Z,29.10
2018-11-07T23:25:07.791Z,28.83
2018-11-07T23:27:36.733Z,28.40
2018-11-07T23:30:06.507Z,29.67
2018-11-07T23:32:35.449Z,29.85
2018-11-07T23:35:05.941Z,29.32
2018-11-07T23:37:34.972Z,28.57
2018-11-07T23:40:04.003Z,29.05
2018-11-07T23:42:33.164Z,29.63
2018-11-07T23:45:02.293Z,28.35
2018-11-07T23:47:31.270Z,30.00
2018-11-07T23:50:00.879Z,29.65
2018-11-07T23:52:50.789Z,29.45
2018-11-07T23:55:22.128Z,28.60
2018-11-07T23:57:51.814Z,28.42
